sensor_id;sensor_type;location;lat;lon;timestamp;pressure;altitude;pressure_sealevel;temperature;humidity
48644;BME280;34928;37.302;-121.984;2023-01-31T00:06:34;101109.0;;;24.94;18.82
48644;BME280;34928;37.302;-121.984;2023-01-31T00:16:37;101126.0;;;24.80;18.59
48644;BME280;34928;37.302;-121.984;2023-01-31T00:26:42;101135.0;;;24.68;18.54
48644;BME280;34928;37.302;-121.984;2023-01-31T00:36:47;101151.0;;;24.79;18.39
48644;BME280;34928;37.302;-121.984;2023-01-31T00:46:52;101162.0;;;24.82;18.36
48644;BME280;34928;37.302;-121.984;2023-01-31T00:56:57;101176.0;;;24.80;18.20
48644;BME280;34928;37.302;-121.984;2023-01-31T01:07:02;101189.0;;;24.84;18.01
48644;BME280;34928;37.302;-121.984;2023-01-31T01:17:07;101176.0;;;24.76;18.05
48644;BME280;34928;37.302;-121.984;2023-01-31T01:27:13;101172.0;;;24.80;18.02
48644;BME280;34928;37.302;-121.984;2023-01-31T01:37:17;101179.0;;;24.82;17.84
48644;BME280;34928;37.302;-121.984;2023-01-31T01:47:33;101200.0;;;24.48;18.02
48644;BME280;34928;37.302;-121.984;2023-01-31T01:57:41;101211.0;;;25.13;18.12
48644;BME280;34928;37.302;-121.984;2023-01-31T02:07:47;101225.0;;;25.95;16.93
48644;BME280;34928;37.302;-121.984;2023-01-31T02:17:53;101241.0;;;26.31;16.46
48644;BME280;34928;37.302;-121.984;2023-01-31T02:38:27;101267.0;;;26.55;15.86
48644;BME280;34928;37.302;-121.984;2023-01-31T02:48:37;101272.0;;;26.27;15.84
48644;BME280;34928;37.302;-121.984;2023-01-31T02:58:52;101278.0;;;26.36;15.47
48644;BME280;34928;37.302;-121.984;2023-01-31T03:09:04;101276.0;;;26.10;16.26
48644;BME280;34928;37.302;-121.984;2023-01-31T03:19:15;101278.0;;;26.59;16.25
48644;BME280;34928;37.302;-121.984;2023-01-31T03:29:23;101281.0;;;26.70;16.64
48644;BME280;34928;37.302;-121.984;2023-01-31T03:39:35;101295.0;;;26.56;16.63
48644;BME280;34928;37.302;-121.984;2023-01-31T03:49:43;101307.0;;;25.99;16.93
48644;BME280;34928;37.302;-121.984;2023-01-31T03:59:50;101316.0;;;26.63;16.71
48644;BME280;34928;37.302;-121.984;2023-01-31T04:09:58;101328.0;;;26.28;16.99
48644;BME280;34928;37.302;-121.984;2023-01-31T04:20:03;101337.0;;;26.50;16.62
48644;BME280;34928;37.302;-121.984;2023-01-31T04:30:09;101347.0;;;26.59;16.94
48644;BME280;34928;37.302;-121.984;2023-01-31T04:40:12;101365.0;;;26.56;16.52
48644;BME280;34928;37.302;-121.984;2023-01-31T04:50:17;101370.0;;;26.44;16.55
48644;BME280;34928;37.302;-121.984;2023-01-31T05:00:23;101370.0;;;26.88;16.22
48644;BME280;34928;37.302;-121.984;2023-01-31T05:10:27;101365.0;;;26.57;16.40
48644;BME280;34928;37.302;-121.984;2023-01-31T05:20:35;101375.0;;;26.66;16.17
48644;BME280;34928;37.302;-121.984;2023-01-31T05:30:37;101381.0;;;26.43;16.42
48644;BME280;34928;37.302;-121.984;2023-01-31T05:40:42;101401.0;;;26.76;16.16
48644;BME280;34928;37.302;-121.984;2023-01-31T05:50:49;101404.0;;;26.75;15.90
48644;BME280;34928;37.302;-121.984;2023-01-31T06:00:55;101390.0;;;26.42;16.04
48644;BME280;34928;37.302;-121.984;2023-01-31T06:05:37;101389.0;;;26.12;16.26
48644;BME280;34928;37.302;-121.984;2023-01-31T06:15:43;101390.0;;;26.86;16.30
48644;BME280;34928;37.302;-121.984;2023-01-31T06:25:49;101388.0;;;26.74;17.74
48644;BME280;34928;37.302;-121.984;2023-01-31T06:35:53;101388.0;;;26.84;16.82
48644;BME280;34928;37.302;-121.984;2023-01-31T06:46:02;101391.0;;;26.62;16.76
48644;BME280;34928;37.302;-121.984;2023-01-31T06:56:08;101401.0;;;26.77;16.89
48644;BME280;34928;37.302;-121.984;2023-01-31T07:06:13;101408.0;;;26.56;16.69
48644;BME280;34928;37.302;-121.984;2023-01-31T07:16:17;101408.0;;;26.46;16.77
48644;BME280;34928;37.302;-121.984;2023-01-31T07:26:22;101414.0;;;26.25;16.79
48644;BME280;34928;37.302;-121.984;2023-01-31T07:36:27;101414.0;;;25.88;16.67
48644;BME280;34928;37.302;-121.984;2023-01-31T07:46:32;101432.0;;;25.72;16.85
48644;BME280;34928;37.302;-121.984;2023-01-31T07:56:37;101425.0;;;25.60;16.77
48644;BME280;34928;37.302;-121.984;2023-01-31T08:06:43;101422.0;;;25.42;16.71
48644;BME280;34928;37.302;-121.984;2023-01-31T08:16:48;101443.0;;;25.40;16.58
48644;BME280;34928;37.302;-121.984;2023-01-31T08:26:53;101449.0;;;25.27;16.65
48644;BME280;34928;37.302;-121.984;2023-01-31T08:36:57;101453.0;;;25.40;16.59
48644;BME280;34928;37.302;-121.984;2023-01-31T08:47:02;101465.0;;;24.94;16.64
48644;BME280;34928;37.302;-121.984;2023-01-31T08:57:07;101451.0;;;24.78;16.66
48644;BME280;34928;37.302;-121.984;2023-01-31T09:07:12;101445.0;;;25.05;16.74
48644;BME280;34928;37.302;-121.984;2023-01-31T09:17:17;101439.0;;;25.09;16.91
48644;BME280;34928;37.302;-121.984;2023-01-31T09:27:22;101445.0;;;24.92;17.00
48644;BME280;34928;37.302;-121.984;2023-01-31T09:37:29;101455.0;;;24.39;17.04
48644;BME280;34928;37.302;-121.984;2023-01-31T09:47:35;101455.0;;;24.36;17.17
48644;BME280;34928;37.302;-121.984;2023-01-31T09:56:58;101456.0;;;23.74;17.41
48644;BME280;34928;37.302;-121.984;2023-01-31T10:07:08;101460.0;;;24.01;17.39
48644;BME280;34928;37.302;-121.984;2023-01-31T10:17:21;101462.0;;;23.86;17.42
48644;BME280;34928;37.302;-121.984;2023-01-31T10:27:38;101474.0;;;23.43;17.54
48644;BME280;34928;37.302;-121.984;2023-01-31T10:37:46;101480.0;;;23.91;17.50
48644;BME280;34928;37.302;-121.984;2023-01-31T10:47:56;101480.0;;;23.43;17.60
48644;BME280;34928;37.302;-121.984;2023-01-31T10:58:03;101488.0;;;23.22;17.60
48644;BME280;34928;37.302;-121.984;2023-01-31T11:08:24;101486.0;;;23.46;16.36
48644;BME280;34928;37.302;-121.984;2023-01-31T11:18:34;101485.0;;;23.47;17.46
48644;BME280;34928;37.302;-121.984;2023-01-31T11:28:50;101488.0;;;23.49;17.43
48644;BME280;34928;37.302;-121.984;2023-01-31T11:38:57;101481.0;;;23.00;16.98
48644;BME280;34928;37.302;-121.984;2023-01-31T11:49:10;101478.0;;;23.47;17.45
48644;BME280;34928;37.302;-121.984;2023-01-31T11:59:21;101482.0;;;23.24;17.41
48644;BME280;34928;37.302;-121.984;2023-01-31T12:09:30;101483.0;;;23.04;16.88
48644;BME280;34928;37.302;-121.984;2023-01-31T12:19:51;101488.0;;;23.34;17.36
48644;BME280;34928;37.302;-121.984;2023-01-31T12:30:16;101491.0;;;23.21;16.46
48644;BME280;34928;37.302;-121.984;2023-01-31T12:40:32;101479.0;;;23.04;17.28
48644;BME280;34928;37.302;-121.984;2023-01-31T12:50:46;101492.0;;;23.08;17.34
48644;BME280;34928;37.302;-121.984;2023-01-31T13:00:56;101508.0;;;23.47;17.19
48644;BME280;34928;37.302;-121.984;2023-01-31T13:11:05;101506.0;;;23.00;16.30
48644;BME280;34928;37.302;-121.984;2023-01-31T13:21:15;101506.0;;;23.32;17.22
48644;BME280;34928;37.302;-121.984;2023-01-31T13:31:34;101510.0;;;23.48;17.26
48644;BME280;34928;37.302;-121.984;2023-01-31T13:41:42;101512.0;;;23.80;17.19
48644;BME280;34928;37.302;-121.984;2023-01-31T13:51:51;101512.0;;;24.05;17.18
48644;BME280;34928;37.302;-121.984;2023-01-31T14:02:00;101520.0;;;24.04;17.13
48644;BME280;34928;37.302;-121.984;2023-01-31T14:22:28;101547.0;;;24.56;17.06
48644;BME280;34928;37.302;-121.984;2023-01-31T14:32:35;101555.0;;;24.77;16.91
48644;BME280;34928;37.302;-121.984;2023-01-31T14:42:58;101568.0;;;25.07;16.97
48644;BME280;34928;37.302;-121.984;2023-01-31T14:53:24;101584.0;;;25.40;17.06
48644;BME280;34928;37.302;-121.984;2023-01-31T15:03:35;101584.0;;;25.09;17.14
48644;BME280;34928;37.302;-121.984;2023-01-31T15:13:45;101576.0;;;25.12;16.20
48644;BME280;34928;37.302;-121.984;2023-01-31T15:23:53;101577.0;;;25.34;14.98
48644;BME280;34928;37.302;-121.984;2023-01-31T15:34:01;101590.0;;;25.79;15.62
48644;BME280;34928;37.302;-121.984;2023-01-31T15:44:14;101615.0;;;25.46;15.59
48644;BME280;34928;37.302;-121.984;2023-01-31T15:54:17;101615.0;;;25.90;15.54
48644;BME280;34928;37.302;-121.984;2023-01-31T16:04:22;101625.0;;;25.91;15.90
48644;BME280;34928;37.302;-121.984;2023-01-31T16:14:27;101642.0;;;25.34;15.24
48644;BME280;34928;37.302;-121.984;2023-01-31T16:24:33;101640.0;;;25.72;15.06
48644;BME280;34928;37.302;-121.984;2023-01-31T16:34:37;101657.0;;;25.53;15.52
48644;BME280;34928;37.302;-121.984;2023-01-31T16:44:44;101668.0;;;25.25;15.40
48644;BME280;34928;37.302;-121.984;2023-01-31T16:54:50;101673.0;;;25.24;15.45
48644;BME280;34928;37.302;-121.984;2023-01-31T17:05:00;101686.0;;;25.12;15.59
48644;BME280;34928;37.302;-121.984;2023-01-31T17:15:14;101699.0;;;24.72;15.52
48644;BME280;34928;37.302;-121.984;2023-01-31T17:25:20;101718.0;;;24.82;15.50
48644;BME280;34928;37.302;-121.984;2023-01-31T17:35:31;101729.0;;;24.47;15.46
48644;BME280;34928;37.302;-121.984;2023-01-31T17:45:37;101712.0;;;24.61;15.55
48644;BME280;34928;37.302;-121.984;2023-01-31T17:55:42;101702.0;;;24.30;15.46
48644;BME280;34928;37.302;-121.984;2023-01-31T18:05:47;101711.0;;;24.58;15.53
48644;BME280;34928;37.302;-121.984;2023-01-31T18:16:02;101701.0;;;24.40;15.69
48644;BME280;34928;37.302;-121.984;2023-01-31T18:26:10;101706.0;;;24.29;15.88
48644;BME280;34928;37.302;-121.984;2023-01-31T18:36:14;101694.0;;;24.25;16.05
48644;BME280;34928;37.302;-121.984;2023-01-31T18:46:17;101685.0;;;24.24;16.03
48644;BME280;34928;37.302;-121.984;2023-01-31T18:56:22;101661.0;;;24.21;16.10
48644;BME280;34928;37.302;-121.984;2023-01-31T19:06:29;101653.0;;;24.36;16.01
48644;BME280;34928;37.302;-121.984;2023-01-31T19:16:40;101638.0;;;24.45;15.96
48644;BME280;34928;37.302;-121.984;2023-01-31T19:26:43;101623.0;;;24.51;16.00
48644;BME280;34928;37.302;-121.984;2023-01-31T19:36:48;101605.0;;;24.25;15.95
48644;BME280;34928;37.302;-121.984;2023-01-31T19:46:52;101597.0;;;24.58;16.03
48644;BME280;34928;37.302;-121.984;2023-01-31T19:56:57;101584.0;;;24.64;16.01
48644;BME280;34928;37.302;-121.984;2023-01-31T20:07:02;101558.0;;;24.90;15.96
48644;BME280;34928;37.302;-121.984;2023-01-31T20:17:07;101548.0;;;24.75;16.02
48644;BME280;34928;37.302;-121.984;2023-01-31T20:27:13;101522.0;;;24.83;16.14
48644;BME280;34928;37.302;-121.984;2023-01-31T20:37:17;101508.0;;;24.79;16.21
48644;BME280;34928;37.302;-121.984;2023-01-31T20:47:22;101492.0;;;24.88;16.22
48644;BME280;34928;37.302;-121.984;2023-01-31T20:57:27;101469.0;;;24.90;16.31
48644;BME280;34928;37.302;-121.984;2023-01-31T21:07:32;101457.0;;;24.66;16.41
48644;BME280;34928;37.302;-121.984;2023-01-31T21:17:38;101435.0;;;24.89;16.45
48644;BME280;34928;37.302;-121.984;2023-01-31T21:27:42;101422.0;;;24.83;16.40
48644;BME280;34928;37.302;-121.984;2023-01-31T21:37:47;101411.0;;;24.79;16.50
48644;BME280;34928;37.302;-121.984;2023-01-31T21:47:54;101401.0;;;25.26;16.56
48644;BME280;34928;37.302;-121.984;2023-01-31T21:57:58;101393.0;;;24.57;16.64
48644;BME280;34928;37.302;-121.984;2023-01-31T22:08:02;101378.0;;;24.88;16.64
48644;BME280;34928;37.302;-121.984;2023-01-31T22:18:07;101375.0;;;25.11;16.71
48644;BME280;34928;37.302;-121.984;2023-01-31T22:28:12;101373.0;;;24.92;16.75
48644;BME280;34928;37.302;-121.984;2023-01-31T22:38:22;101366.0;;;25.11;16.86
48644;BME280;34928;37.302;-121.984;2023-01-31T22:48:27;101369.0;;;25.20;16.91
48644;BME280;34928;37.302;-121.984;2023-01-31T22:58:33;101371.0;;;25.02;16.92
48644;BME280;34928;37.302;-121.984;2023-01-31T23:08:38;101378.0;;;24.79;16.96
48644;BME280;34928;37.302;-121.984;2023-01-31T23:18:43;101377.0;;;25.38;16.97
48644;BME280;34928;37.302;-121.984;2023-01-31T23:39:17;101371.0;;;25.11;17.24
48644;BME280;34928;37.302;-121.984;2023-01-31T23:49:22;101365.0;;;25.28;17.36
48644;BME280;34928;37.302;-121.984;2023-01-31T23:59:28;101363.0;;;25.09;17.33
